BIIS

Ísafjörður Airport

Ísafjörður, Iceland
TAF BIIS 151015Z 1511/1520 04015G25KT 9000 -RASN SCT015 OVC025
Issued Valid From Valid To
Nov-15 @ 10:15 UTC
(2 hours ago)
Nov-15 @ 11:00 UTC
(2 hours ago)
Nov-15 @ 20:00 UTC
(in 7 hours)
Nov-15 @ 11:00 to Nov-15 @ 20:00
TAF BIIS 151015Z 1511/1520 04015G25KT 9000 -RASN SCT015 OVC025
Wind Visibility Clouds Conditions
40° at 15 knots
 Gusting to 25 knots
8,996 meters
  • Scattered at 1,500' AGL
  • Overcast at 2,500' AGL
  • Light Rain
  • Light Snow
TAF BIIS 151015Z 1511/1520 04015G25KT 9000 -RASN SCT015 OVC025
Issued Nov-15 @ 10:15 UTC
(2 hours ago)
Valid From Nov-15 @ 11:00 UTC
(2 hours ago)
Valid To Nov-15 @ 20:00 UTC
(in 7 hours)
Nov-15 @ 11:00 - Nov-15 @ 20:00
Wind Visibility
40° at 15 knots
 Gusting to 25 knots
8,996 meters
Clouds
  • Scattered at 1,500' AGL
  • Overcast at 2,500' AGL
Conditions
  • Light Rain
  • Light Snow